Willow Grove, Kentucky
Current Conditions -  °F | °C
As of 12:35 PM on Saturday 25 Oct 2014 (Local Time) from KFGX Reporting Station
Overcast Overcast  
Wind Chill: 60°   Ceiling: 2500
Heat Index: 60°   Visibility: 10mi
Dew Point: 53°   Wind: 10mph
Humidity: 75%   Direction: 240°WSW
Pressure: 30.02"   Gusts: NA
Location:  38.7475°N, 84.1516°W
Report Text: KFGX 251635Z AUTO 24009KT 10SM OVC025 16/11 A3002 RMK AO2 T01580114
Loading
Personal Weather Stations






























Interactive Weather Map
Tropical Storm Tracking
New forecast layout! Learn more

10-Day Weather Forecast

Advertisements
Track Severe Weather on mobile